createdAt,value
2018-10-18T00:02:42.714Z,86.90
2018-10-18T00:06:39.687Z,86.90
2018-10-18T00:10:36.486Z,86.90
2018-10-18T00:14:33.187Z,86.80
2018-10-18T00:18:29.495Z,86.80
2018-10-18T00:22:26.013Z,86.80
2018-10-18T00:26:22.703Z,86.90
2018-10-18T00:30:19.732Z,87.00
2018-10-18T00:34:16.321Z,87.10
2018-10-18T00:38:12.928Z,87.20
2018-10-18T00:42:09.697Z,87.30
2018-10-18T00:46:06.469Z,87.20
2018-10-18T00:50:03.460Z,87.30
2018-10-18T00:54:00.217Z,87.40
2018-10-18T00:57:56.966Z,87.50
2018-10-18T01:01:53.742Z,87.50
2018-10-18T01:05:50.401Z,87.50
2018-10-18T01:09:47.137Z,87.60
2018-10-18T01:13:43.597Z,87.70
2018-10-18T01:17:40.261Z,87.70
2018-10-18T01:21:36.849Z,87.70
2018-10-18T01:25:33.568Z,87.80
2018-10-18T01:29:30.983Z,87.80
2018-10-18T01:33:27.531Z,87.70
2018-10-18T01:37:24.117Z,87.80
2018-10-18T01:41:20.876Z,87.80
2018-10-18T01:45:17.448Z,87.80
2018-10-18T01:49:14.183Z,87.80
2018-10-18T01:53:10.992Z,87.80
2018-10-18T01:57:08.088Z,87.90
2018-10-18T02:01:04.739Z,88.00
2018-10-18T02:05:01.591Z,88.00
2018-10-18T02:08:58.557Z,88.00
2018-10-18T02:12:55.348Z,88.20
2018-10-18T02:16:52.031Z,88.10
2018-10-18T02:20:50.778Z,88.00
2018-10-18T02:24:48.061Z,88.00
2018-10-18T02:28:44.794Z,87.80
2018-10-18T02:32:41.599Z,87.60
2018-10-18T02:36:38.365Z,87.70
2018-10-18T02:40:35.247Z,87.50
2018-10-18T02:44:31.866Z,87.50
2018-10-18T02:48:28.596Z,87.50
2018-10-18T02:52:25.423Z,87.50
2018-10-18T02:56:22.048Z,87.70
2018-10-18T03:00:18.620Z,87.90
2018-10-18T03:04:15.513Z,88.00
2018-10-18T03:08:12.351Z,88.00
2018-10-18T03:12:10.017Z,88.00
2018-10-18T03:16:07.327Z,88.10
2018-10-18T03:20:03.821Z,88.30
2018-10-18T03:24:00.596Z,88.40
2018-10-18T03:27:57.353Z,88.60
2018-10-18T03:31:54.208Z,88.60
2018-10-18T03:35:50.993Z,88.60
2018-10-18T03:39:47.735Z,88.60
2018-10-18T03:43:44.558Z,88.60
2018-10-18T03:47:41.337Z,88.70
2018-10-18T03:51:38.071Z,88.70
2018-10-18T03:55:35.056Z,88.70
2018-10-18T03:59:33.172Z,88.80
2018-10-18T04:03:29.973Z,88.70
2018-10-18T04:07:26.829Z,88.80
2018-10-18T04:11:24.783Z,88.70
2018-10-18T04:15:21.734Z,89.00
2018-10-18T04:19:20.895Z,88.90
2018-10-18T04:23:22.775Z,89.00
2018-10-18T04:27:19.821Z,88.80
2018-10-18T04:31:17.250Z,88.70
2018-10-18T04:35:14.918Z,88.90
2018-10-18T04:39:13.163Z,88.90
2018-10-18T04:43:11.269Z,88.90
2018-10-18T04:47:10.166Z,88.90
2018-10-18T04:51:07.167Z,89.00
2018-10-18T04:55:03.841Z,88.90
2018-10-18T04:59:00.533Z,89.00
2018-10-18T05:02:57.425Z,88.90
2018-10-18T05:06:54.284Z,89.00
2018-10-18T05:10:50.899Z,89.00
2018-10-18T05:14:47.741Z,89.20
2018-10-18T05:18:44.497Z,89.20
2018-10-18T05:22:41.233Z,89.10
2018-10-18T05:26:38.231Z,88.90
2018-10-18T05:30:35.388Z,89.00
2018-10-18T05:34:32.325Z,88.90
2018-10-18T05:38:29.321Z,89.10
2018-10-18T05:42:26.180Z,89.30
2018-10-18T05:46:22.865Z,89.20
2018-10-18T05:50:19.488Z,89.40
2018-10-18T05:54:16.800Z,89.30
2018-10-18T05:58:13.762Z,89.30
2018-10-18T06:02:10.436Z,89.40
2018-10-18T06:06:07.703Z,89.40
2018-10-18T06:10:05.290Z,89.60
2018-10-18T06:14:02.038Z,89.60
2018-10-18T06:17:59.523Z,89.80
2018-10-18T06:21:56.592Z,89.70
2018-10-18T06:25:53.954Z,89.60
2018-10-18T06:29:50.868Z,89.80
2018-10-18T06:33:48.460Z,89.70
2018-10-18T06:37:49.462Z,89.70
2018-10-18T06:41:46.657Z,89.70
2018-10-18T06:45:43.965Z,89.90
2018-10-18T06:49:40.906Z,89.80
2018-10-18T06:53:38.073Z,89.90
2018-10-18T06:57:35.465Z,89.90
2018-10-18T07:01:32.725Z,90.00
2018-10-18T07:05:29.674Z,90.00
2018-10-18T07:09:30.408Z,89.90
2018-10-18T07:13:27.646Z,89.40
2018-10-18T07:17:25.916Z,90.10
2018-10-18T07:21:22.811Z,90.30
2018-10-18T07:25:24.159Z,90.30
2018-10-18T07:29:22.541Z,90.30
2018-10-18T07:33:20.405Z,90.40
2018-10-18T07:37:17.916Z,90.40
2018-10-18T07:41:17.396Z,90.50
2018-10-18T07:45:15.440Z,90.50
2018-10-18T07:49:30.389Z,90.40
2018-10-18T07:53:28.427Z,90.40
2018-10-18T07:57:27.618Z,90.70
2018-10-18T08:01:24.709Z,90.30
2018-10-18T08:05:22.918Z,90.10
2018-10-18T08:09:21.305Z,90.20
2018-10-18T08:17:46.895Z,90.00
2018-10-18T08:21:46.160Z,90.00
2018-10-18T08:25:43.293Z,89.60
2018-10-18T08:29:40.515Z,90.00
2018-10-18T08:33:39.535Z,90.00
2018-10-18T08:37:37.092Z,90.00
2018-10-18T08:41:37.932Z,88.80
2018-10-18T08:45:36.116Z,88.60
2018-10-18T08:49:34.366Z,88.40
2018-10-18T08:53:31.966Z,88.40
2018-10-18T08:57:28.884Z,88.40
2018-10-18T09:01:26.432Z,88.80
2018-10-18T09:05:25.205Z,87.30
2018-10-18T09:09:22.722Z,87.70
2018-10-18T09:13:21.271Z,87.90
2018-10-18T09:17:19.674Z,87.60
2018-10-18T09:21:16.804Z,86.70
2018-10-18T09:25:15.147Z,86.70
2018-10-18T09:29:11.902Z,86.80
2018-10-18T09:33:08.813Z,86.50
2018-10-18T09:37:05.965Z,87.20
2018-10-18T09:41:02.525Z,87.70
2018-10-18T09:44:59.386Z,88.10
2018-10-18T09:48:56.053Z,88.00
2018-10-18T09:52:52.896Z,86.00
2018-10-18T09:56:49.754Z,84.40
2018-10-18T10:00:51.562Z,85.00
2018-10-18T10:04:48.446Z,85.00
2018-10-18T10:08:45.253Z,85.00
2018-10-18T10:12:42.069Z,82.70
2018-10-18T10:16:39.046Z,82.70
2018-10-18T10:20:35.880Z,84.00
2018-10-18T10:24:32.471Z,85.20
2018-10-18T10:28:36.210Z,86.70
2018-10-18T10:32:33.222Z,87.50
2018-10-18T10:36:29.943Z,87.90
2018-10-18T10:40:27.036Z,87.80
2018-10-18T10:44:23.687Z,85.20
2018-10-18T10:48:20.472Z,85.00
2018-10-18T10:52:17.344Z,84.70
2018-10-18T10:56:14.092Z,85.20
2018-10-18T11:00:11.026Z,86.50
2018-10-18T11:04:07.910Z,86.50
2018-10-18T11:08:05.390Z,86.50
2018-10-18T11:12:02.471Z,86.30
2018-10-18T11:16:00.313Z,86.20
2018-10-18T11:19:57.339Z,86.20
2018-10-18T11:23:54.854Z,86.70
2018-10-18T11:27:51.673Z,86.60
2018-10-18T11:31:48.278Z,86.90
2018-10-18T11:35:45.404Z,86.60
2018-10-18T11:39:42.499Z,86.70
2018-10-18T11:43:39.320Z,84.30
2018-10-18T11:47:36.550Z,83.80
2018-10-18T11:51:34.477Z,83.40
2018-10-18T11:55:32.004Z,83.30
2018-10-18T11:59:28.740Z,83.30
2018-10-18T12:03:25.850Z,83.30
2018-10-18T12:07:25.378Z,83.20
2018-10-18T12:11:22.179Z,83.00
2018-10-18T12:15:18.909Z,83.10
2018-10-18T12:19:16.953Z,83.00
2018-10-18T12:23:14.874Z,83.00
2018-10-18T12:27:11.201Z,83.10
2018-10-18T12:31:08.264Z,83.10
2018-10-18T12:35:05.981Z,83.00
2018-10-18T12:39:02.910Z,83.20
2018-10-18T12:43:00.752Z,83.00
2018-10-18T12:46:57.116Z,83.10
2018-10-18T12:50:53.682Z,83.10
2018-10-18T12:54:50.187Z,83.70
2018-10-18T12:58:47.192Z,82.90
2018-10-18T13:02:43.605Z,83.10
2018-10-18T13:06:42.599Z,83.20
2018-10-18T13:10:39.387Z,83.10
2018-10-18T13:14:36.255Z,83.00
2018-10-18T13:18:35.280Z,83.10
2018-10-18T13:22:32.185Z,83.10
2018-10-18T13:26:28.604Z,83.10
2018-10-18T13:30:25.912Z,83.10
2018-10-18T13:34:22.742Z,83.00
2018-10-18T13:38:20.612Z,82.90
2018-10-18T13:42:18.277Z,82.80
2018-10-18T13:46:15.089Z,83.70
2018-10-18T13:50:12.427Z,82.70
2018-10-18T13:54:09.399Z,82.60
2018-10-18T13:58:06.299Z,82.60
2018-10-18T14:02:03.647Z,82.50
2018-10-18T14:06:00.628Z,82.50
2018-10-18T14:09:57.399Z,82.50
2018-10-18T14:13:55.057Z,82.60
2018-10-18T14:17:52.510Z,82.50
2018-10-18T14:21:49.125Z,82.50
2018-10-18T14:25:46.009Z,82.50
2018-10-18T14:29:42.812Z,82.50
2018-10-18T14:33:39.663Z,82.50
2018-10-18T14:37:36.913Z,82.50
2018-10-18T14:41:33.773Z,82.50
2018-10-18T14:45:30.609Z,82.50
2018-10-18T14:49:27.920Z,82.50
2018-10-18T14:53:26.535Z,82.60
2018-10-18T14:57:24.799Z,82.70
2018-10-18T15:01:21.416Z,82.60
2018-10-18T15:05:17.795Z,82.80
2018-10-18T15:09:14.322Z,82.70
2018-10-18T15:13:11.489Z,82.80
2018-10-18T15:17:09.042Z,82.70
2018-10-18T15:21:06.695Z,82.80
2018-10-18T15:25:04.059Z,82.80
2018-10-18T15:29:00.756Z,82.80
2018-10-18T15:32:58.591Z,82.70
2018-10-18T15:36:55.697Z,82.70
2018-10-18T15:40:52.561Z,82.70
2018-10-18T15:44:50.911Z,82.70
2018-10-18T15:48:48.597Z,82.60
2018-10-18T15:52:45.459Z,82.60
2018-10-18T15:56:42.619Z,82.70
2018-10-18T16:00:39.217Z,83.30
2018-10-18T16:04:36.333Z,82.60
2018-10-18T16:08:33.139Z,82.60
2018-10-18T16:12:29.770Z,82.60
2018-10-18T16:16:26.631Z,82.70
2018-10-18T16:20:23.419Z,82.60
2018-10-18T16:24:20.504Z,82.60
2018-10-18T16:28:17.588Z,83.40
2018-10-18T16:32:14.693Z,82.60
2018-10-18T16:36:14.479Z,82.70
2018-10-18T16:40:11.394Z,82.60
2018-10-18T16:44:08.569Z,82.70
2018-10-18T16:48:05.631Z,82.70
2018-10-18T16:52:06.248Z,82.60
2018-10-18T16:56:03.696Z,82.70
2018-10-18T17:00:00.161Z,82.70
2018-10-18T17:03:56.578Z,82.70
2018-10-18T17:07:53.059Z,82.60
2018-10-18T17:11:49.591Z,82.70
2018-10-18T17:15:46.667Z,82.70
2018-10-18T17:19:43.846Z,82.70
2018-10-18T17:23:40.724Z,82.70
2018-10-18T17:27:37.713Z,82.70
2018-10-18T17:31:38.589Z,82.70
2018-10-18T17:35:35.522Z,82.70
2018-10-18T17:39:32.637Z,82.70
2018-10-18T17:43:29.141Z,82.70
2018-10-18T17:47:25.845Z,82.70
2018-10-18T17:51:22.270Z,82.60
2018-10-18T17:55:19.265Z,82.70
2018-10-18T17:59:16.077Z,82.70
2018-10-18T18:03:13.043Z,82.70
2018-10-18T18:07:09.729Z,82.70
2018-10-18T18:11:06.551Z,82.60
2018-10-18T18:15:06.589Z,82.50
2018-10-18T18:19:03.269Z,82.60
2018-10-18T18:23:02.449Z,82.60
2018-10-18T18:26:59.502Z,82.60
2018-10-18T18:30:57.739Z,82.50
2018-10-18T18:34:55.303Z,82.50
2018-10-18T18:38:51.769Z,82.50
2018-10-18T18:42:49.936Z,82.50
2018-10-18T18:46:47.284Z,82.50
2018-10-18T18:50:44.274Z,82.50
2018-10-18T18:54:41.295Z,82.50
2018-10-18T18:58:38.260Z,82.50
2018-10-18T19:02:34.964Z,82.40
2018-10-18T19:06:31.656Z,82.30
2018-10-18T19:10:28.387Z,82.40
2018-10-18T19:14:25.257Z,82.50
2018-10-18T19:18:22.217Z,82.40
2018-10-18T19:22:19.133Z,82.40
2018-10-18T19:26:16.464Z,82.30
2018-10-18T19:30:13.790Z,82.30
2018-10-18T19:34:10.580Z,82.30
2018-10-18T19:38:07.321Z,82.30
2018-10-18T19:42:03.746Z,82.30
2018-10-18T19:46:00.756Z,82.20
2018-10-18T19:49:58.062Z,82.30
2018-10-18T19:53:54.869Z,82.30
2018-10-18T19:57:51.675Z,82.30
2018-10-18T20:01:48.753Z,82.30
2018-10-18T20:05:45.469Z,82.30
2018-10-18T20:09:42.112Z,82.30
2018-10-18T20:13:39.858Z,82.30
2018-10-18T20:17:37.789Z,82.20
2018-10-18T20:21:34.545Z,82.20
2018-10-18T20:25:31.185Z,82.10
2018-10-18T20:29:27.948Z,82.10
2018-10-18T20:33:24.668Z,82.20
2018-10-18T20:37:21.361Z,82.20
2018-10-18T20:41:18.089Z,82.20
2018-10-18T20:45:19.739Z,82.10
2018-10-18T20:49:16.541Z,82.10
2018-10-18T20:53:13.447Z,82.10
2018-10-18T20:57:10.429Z,82.10
2018-10-18T21:01:08.510Z,82.00
2018-10-18T21:05:05.427Z,82.00
2018-10-18T21:09:02.121Z,82.30
2018-10-18T21:12:59.929Z,82.00
2018-10-18T21:16:56.521Z,81.90
2018-10-18T21:20:53.340Z,81.90
2018-10-18T21:24:49.922Z,81.90
2018-10-18T21:28:46.405Z,82.00
2018-10-18T21:32:43.956Z,82.00
2018-10-18T21:36:41.429Z,83.20
2018-10-18T21:40:38.899Z,85.00
2018-10-18T21:44:37.245Z,85.00
2018-10-18T21:48:35.018Z,85.60
2018-10-18T21:52:31.899Z,85.10
2018-10-18T21:56:32.931Z,84.30
2018-10-18T22:00:35.327Z,84.60
2018-10-18T22:04:32.693Z,84.60
2018-10-18T22:08:29.437Z,83.60
2018-10-18T22:12:26.100Z,83.70
2018-10-18T22:16:22.889Z,83.80
2018-10-18T22:20:19.490Z,83.60
2018-10-18T22:24:16.135Z,82.30
2018-10-18T22:28:12.766Z,81.80
2018-10-18T22:32:09.042Z,81.70
2018-10-18T22:36:05.568Z,81.80
2018-10-18T22:40:02.104Z,81.90
2018-10-18T22:43:58.761Z,81.70
2018-10-18T22:47:55.407Z,81.50
2018-10-18T22:51:52.017Z,82.40
2018-10-18T22:55:48.801Z,82.80
2018-10-18T22:59:45.437Z,83.40
2018-10-18T23:03:42.261Z,83.60
2018-10-18T23:07:39.555Z,84.10
2018-10-18T23:11:36.457Z,84.40
2018-10-18T23:15:33.761Z,84.60
2018-10-18T23:19:30.304Z,84.50
2018-10-18T23:23:26.881Z,84.70
2018-10-18T23:27:22.564Z,85.00
2018-10-18T23:31:19.034Z,85.40
2018-10-18T23:35:15.695Z,84.80
2018-10-18T23:39:12.857Z,84.70
2018-10-18T23:43:09.458Z,84.70
2018-10-18T23:47:07.274Z,84.60
2018-10-18T23:51:05.042Z,84.60
2018-10-18T23:55:01.825Z,84.70
2018-10-18T23:58:58.560Z,84.60
